TimeEST,TemperatureF,Dew PointF,Humidity,Sea Level PressureIn,VisibilityMPH,Wind Direction,Wind SpeedMPH,Gust SpeedMPH,PrecipitationIn,Events,Conditions,WindDirDegrees,DateUTC
12:14 AM,73.4,71.6,94,29.80,10.0,South,12.7,-,N/A,,Mostly Cloudy,180,2013-11-27 05:14:00
12:36 AM,73.4,71.6,94,29.81,10.0,South,5.8,-,N/A,,Overcast,190,2013-11-27 05:36:00
12:53 AM,73.0,71.1,93,29.82,4.0,SSW,11.5,-,0.01,Rain,Light Rain,200,2013-11-27 05:53:00
1:10 AM,73.4,69.8,88,29.80,10.0,South,6.9,-,0.00,,Mostly Cloudy,180,2013-11-27 06:10:00
1:27 AM,73.4,71.6,94,29.80,10.0,SSW,8.1,-,0.00,,Scattered Clouds,200,2013-11-27 06:27:00
1:38 AM,73.4,71.6,94,29.80,10.0,SSW,6.9,-,0.00,,Mostly Cloudy,200,2013-11-27 06:38:00
1:53 AM,73.0,71.1,93,29.81,10.0,SSW,6.9,-,0.00,,Overcast,210,2013-11-27 06:53:00
2:00 AM,73.4,71.6,94,29.80,10.0,SSW,6.9,-,N/A,,Overcast,210,2013-11-27 07:00:00
2:07 AM,73.4,71.6,94,29.79,10.0,SW,6.9,-,N/A,,Overcast,220,2013-11-27 07:07:00
2:33 AM,73.4,71.6,94,29.78,7.0,SSW,9.2,-,0.01,Rain,Light Rain,200,2013-11-27 07:33:00
2:53 AM,73.9,72.0,93,29.79,10.0,SSW,6.9,-,0.01,,Overcast,200,2013-11-27 07:53:00
3:18 AM,73.4,71.6,94,29.78,10.0,SSW,5.8,-,N/A,,Overcast,210,2013-11-27 08:18:00
3:53 AM,73.9,72.0,93,29.79,3.0,SW,9.2,-,0.02,Rain,Light Rain,230,2013-11-27 08:53:00
4:20 AM,73.4,71.6,94,29.79,10.0,WSW,9.2,-,0.01,,Overcast,250,2013-11-27 09:20:00
4:53 AM,73.9,71.1,91,29.81,10.0,WSW,9.2,-,0.01,,Overcast,250,2013-11-27 09:53:00
5:19 AM,73.4,69.8,88,29.81,3.0,West,16.1,24.2,0.03,Rain,Light Rain,280,2013-11-27 10:19:00
5:46 AM,71.6,68.0,88,29.82,10.0,West,11.5,-,0.04,,Overcast,280,2013-11-27 10:46:00
5:53 AM,72.0,66.9,84,29.83,10.0,West,12.7,-,0.04,,Overcast,280,2013-11-27 10:53:00
6:53 AM,71.1,66.9,87,29.85,10.0,WNW,5.8,-,N/A,,Clear,290,2013-11-27 11:53:00
7:53 AM,70.0,64.9,84,29.88,10.0,WNW,6.9,-,0.00,,Overcast,290,2013-11-27 12:53:00
8:53 AM,72.0,62.1,71,29.91,10.0,WNW,16.1,25.3,N/A,,Mostly Cloudy,300,2013-11-27 13:53:00
9:53 AM,73.9,61.0,64,29.92,10.0,NW,21.9,26.5,N/A,,Scattered Clouds,310,2013-11-27 14:53:00
10:53 AM,75.0,59.0,57,29.94,10.0,WNW,18.4,27.6,N/A,,Scattered Clouds,300,2013-11-27 15:53:00
11:53 AM,73.9,55.0,52,29.94,10.0,NW,18.4,24.2,N/A,,Scattered Clouds,310,2013-11-27 16:53:00
12:53 PM,73.0,55.9,55,29.93,10.0,WNW,18.4,27.6,N/A,,Mostly Cloudy,300,2013-11-27 17:53:00
1:53 PM,73.9,55.0,52,29.93,10.0,WNW,13.8,24.2,N/A,,Mostly Cloudy,300,2013-11-27 18:53:00
2:53 PM,73.0,57.0,57,29.93,10.0,WNW,12.7,25.3,N/A,,Scattered Clouds,300,2013-11-27 19:53:00
3:53 PM,72.0,57.0,59,29.95,10.0,NW,19.6,25.3,N/A,,Partly Cloudy,320,2013-11-27 20:53:00
4:53 PM,68.0,55.0,63,29.99,10.0,NW,15.0,-,N/A,,Mostly Cloudy,320,2013-11-27 21:53:00
5:53 PM,66.0,54.0,65,30.02,10.0,NNW,13.8,-,N/A,,Overcast,340,2013-11-27 22:53:00
6:53 PM,64.9,53.1,65,30.05,10.0,NNW,12.7,-,N/A,,Overcast,330,2013-11-27 23:53:00
7:53 PM,63.0,51.1,65,30.08,10.0,North,11.5,-,N/A,,Overcast,350,2013-11-28 00:53:00
8:53 PM,61.0,50.0,67,30.12,10.0,North,13.8,-,N/A,,Partly Cloudy,360,2013-11-28 01:53:00
9:53 PM,57.9,46.9,67,30.14,10.0,North,11.5,20.7,N/A,,Clear,350,2013-11-28 02:53:00
10:53 PM,55.9,46.9,72,30.17,10.0,North,13.8,-,N/A,,Clear,10,2013-11-28 03:53:00
11:53 PM,53.1,45.0,74,30.19,10.0,North,12.7,-,N/A,,Clear,10,2013-11-28 04:53:00